createdAt,value
2019-05-20T00:00:41.146Z,100.00
2019-05-20T00:03:11.664Z,100.00
2019-05-20T00:05:42.459Z,100.00
2019-05-20T00:08:13.115Z,100.00
2019-05-20T00:10:46.726Z,100.00
2019-05-20T00:13:20.145Z,100.00
2019-05-20T00:15:53.427Z,100.00
2019-05-20T00:18:23.818Z,100.00
2019-05-20T00:20:54.182Z,100.00
2019-05-20T00:23:24.787Z,100.00
2019-05-20T00:25:55.021Z,100.00
2019-05-20T00:28:25.357Z,100.00
2019-05-20T00:30:55.682Z,100.00
2019-05-20T00:33:26.190Z,100.00
2019-05-20T00:35:56.562Z,100.00
2019-05-20T00:38:27.009Z,100.00
2019-05-20T00:40:57.443Z,100.00
2019-05-20T00:43:27.973Z,100.00
2019-05-20T00:46:01.117Z,100.00
2019-05-20T00:48:31.631Z,100.00
2019-05-20T00:51:02.045Z,100.00
2019-05-20T00:53:32.472Z,100.00
2019-05-20T00:56:02.994Z,100.00
2019-05-20T00:58:33.448Z,100.00
2019-05-20T01:02:55.832Z,100.00
2019-05-20T01:05:13.843Z,100.00
2019-05-20T01:07:44.229Z,100.00
2019-05-20T01:10:15.234Z,100.00
2019-05-20T01:12:45.701Z,100.00
2019-05-20T01:15:16.668Z,100.00
2019-05-20T01:17:47.052Z,100.00
2019-05-20T01:20:17.817Z,100.00
2019-05-20T01:22:48.340Z,100.00
2019-05-20T01:25:18.821Z,100.00
2019-05-20T01:27:49.185Z,100.00
2019-05-20T01:30:20.542Z,100.00
2019-05-20T01:32:50.939Z,100.00
2019-05-20T01:35:21.506Z,100.00
2019-05-20T01:37:51.886Z,100.00
2019-05-20T01:40:22.462Z,100.00
2019-05-20T01:42:52.861Z,100.00
2019-05-20T01:45:23.314Z,100.00
2019-05-20T01:47:53.497Z,100.00
2019-05-20T01:50:23.808Z,100.00
2019-05-20T01:52:56.811Z,100.00
2019-05-20T01:55:27.125Z,100.00
2019-05-20T01:57:57.570Z,100.00
2019-05-20T02:00:27.997Z,100.00
2019-05-20T02:02:58.412Z,100.00
2019-05-20T02:05:28.778Z,100.00
2019-05-20T02:07:59.295Z,100.00
2019-05-20T02:10:29.669Z,100.00
2019-05-20T02:12:59.979Z,100.00
2019-05-20T02:15:36.110Z,100.00
2019-05-20T02:18:06.498Z,100.00
2019-05-20T02:20:36.841Z,100.00
2019-05-20T02:23:16.569Z,100.00
2019-05-20T02:25:54.569Z,100.00
2019-05-20T02:28:24.940Z,100.00
2019-05-20T02:30:57.195Z,100.00
2019-05-20T02:33:27.672Z,100.00
2019-05-20T02:36:01.332Z,100.00
2019-05-20T02:38:37.182Z,100.00
2019-05-20T02:41:07.672Z,100.00
2019-05-20T02:43:40.873Z,100.00
2019-05-20T02:46:11.313Z,100.00
2019-05-20T02:48:41.639Z,100.00
2019-05-20T02:51:12.143Z,100.00
2019-05-20T02:53:42.639Z,100.00
2019-05-20T02:56:12.983Z,100.00
2019-05-20T02:58:43.581Z,100.00
2019-05-20T03:02:43.882Z,100.00
2019-05-20T03:05:14.396Z,100.00
2019-05-20T03:07:44.953Z,100.00
2019-05-20T03:10:15.430Z,100.00
2019-05-20T03:12:45.948Z,100.00
2019-05-20T03:15:16.831Z,100.00
2019-05-20T03:17:47.185Z,100.00
2019-05-20T03:20:17.685Z,100.00
2019-05-20T03:22:48.040Z,100.00
2019-05-20T03:25:18.601Z,100.00
2019-05-20T03:27:48.995Z,100.00
2019-05-20T03:30:19.457Z,100.00
2019-05-20T03:32:49.956Z,100.00
2019-05-20T03:35:20.312Z,100.00
2019-05-20T03:37:50.693Z,100.00
2019-05-20T03:40:21.119Z,100.00
2019-05-20T03:42:51.462Z,100.00
2019-05-20T03:45:21.848Z,100.00
2019-05-20T03:47:52.180Z,100.00
2019-05-20T03:50:22.669Z,100.00
2019-05-20T03:52:54.198Z,100.00
2019-05-20T03:55:24.479Z,100.00
2019-05-20T03:57:54.811Z,100.00
2019-05-20T04:00:44.577Z,100.00
2019-05-20T04:03:15.575Z,100.00
2019-05-20T04:05:46.426Z,100.00
2019-05-20T04:08:16.802Z,100.00
2019-05-20T04:10:47.113Z,100.00
2019-05-20T04:13:17.558Z,100.00
2019-05-20T04:15:48.038Z,100.00
2019-05-20T04:18:18.252Z,100.00
2019-05-20T04:20:48.495Z,100.00
2019-05-20T04:23:18.957Z,100.00
2019-05-20T04:25:49.386Z,100.00
2019-05-20T04:28:19.746Z,100.00
2019-05-20T04:30:50.079Z,100.00
2019-05-20T04:33:20.469Z,100.00
2019-05-20T04:35:50.917Z,100.00
2019-05-20T04:38:21.240Z,100.00
2019-05-20T04:40:51.544Z,100.00
2019-05-20T04:43:21.938Z,100.00
2019-05-20T04:45:52.741Z,100.00
2019-05-20T04:48:23.187Z,100.00
2019-05-20T04:50:53.366Z,100.00
2019-05-20T04:53:23.562Z,100.00
2019-05-20T04:55:56.905Z,100.00
2019-05-20T04:58:27.380Z,100.00
2019-05-20T05:02:46.255Z,100.00
2019-05-20T05:05:16.738Z,100.00
2019-05-20T05:07:47.349Z,100.00
2019-05-20T05:10:17.852Z,100.00
2019-05-20T05:12:48.507Z,100.00
2019-05-20T05:15:21.857Z,100.00
2019-05-20T05:17:55.362Z,100.00
2019-05-20T05:20:26.002Z,100.00
2019-05-20T05:22:56.403Z,100.00
2019-05-20T05:25:26.739Z,100.00
2019-05-20T05:27:57.130Z,100.00
2019-05-20T05:30:28.418Z,100.00
2019-05-20T05:33:07.656Z,100.00
2019-05-20T05:35:52.187Z,100.00
2019-05-20T05:38:10.300Z,100.00
2019-05-20T05:40:40.645Z,100.00
2019-05-20T05:43:11.146Z,100.00
2019-05-20T05:45:41.556Z,100.00
2019-05-20T05:48:11.991Z,100.00
2019-05-20T05:50:42.453Z,100.00
2019-05-20T05:53:12.899Z,100.00
2019-05-20T05:55:45.913Z,100.00
2019-05-20T05:58:16.205Z,100.00
2019-05-20T06:00:46.591Z,100.00
2019-05-20T06:03:16.986Z,100.00
2019-05-20T06:05:47.207Z,100.00
2019-05-20T06:08:17.500Z,100.00
2019-05-20T06:10:48.009Z,99.69
2019-05-20T06:13:18.436Z,97.55
2019-05-20T06:15:48.842Z,96.30
2019-05-20T06:18:19.271Z,95.83
2019-05-20T06:20:49.605Z,94.88
2019-05-20T06:23:20.028Z,96.49
2019-05-20T06:25:50.416Z,94.98
2019-05-20T06:28:20.814Z,93.38
2019-05-20T06:30:51.280Z,92.17
2019-05-20T06:33:21.699Z,92.25
2019-05-20T06:35:52.166Z,91.79
2019-05-20T06:38:56.292Z,92.51
2019-05-20T06:41:26.726Z,89.87
2019-05-20T06:43:57.193Z,90.74
2019-05-20T06:46:27.658Z,90.53
2019-05-20T06:48:58.297Z,93.33
2019-05-20T06:51:28.688Z,90.57
2019-05-20T06:53:59.049Z,92.67
2019-05-20T06:56:29.499Z,90.74
2019-05-20T06:59:00.019Z,91.29
2019-05-20T07:02:42.155Z,90.05
2019-05-20T07:05:13.027Z,90.97
2019-05-20T07:07:43.426Z,91.57
2019-05-20T07:10:13.861Z,91.65
2019-05-20T07:12:44.257Z,93.43
2019-05-20T07:15:14.768Z,92.81
2019-05-20T07:17:45.153Z,91.92
2019-05-20T07:20:15.720Z,92.73
2019-05-20T07:22:55.815Z,92.58
2019-05-20T07:25:18.219Z,92.86
2019-05-20T07:27:48.566Z,94.65
2019-05-20T07:30:19.305Z,93.85
2019-05-20T07:32:49.958Z,93.86
2019-05-20T07:35:30.072Z,91.90
2019-05-20T07:37:52.376Z,94.48
2019-05-20T07:40:33.889Z,92.34
2019-05-20T07:43:12.019Z,94.29
2019-05-20T07:45:42.865Z,93.63
2019-05-20T07:48:13.807Z,94.99
2019-05-20T07:50:45.618Z,93.75
2019-05-20T07:53:16.828Z,93.06
2019-05-20T07:56:00.734Z,93.38
2019-05-20T07:58:38.505Z,93.16
2019-05-20T08:01:11.188Z,92.97
2019-05-20T08:03:41.639Z,92.81
2019-05-20T08:06:13.541Z,93.34
2019-05-20T08:08:46.767Z,92.58
2019-05-20T08:11:17.268Z,92.04
2019-05-20T08:13:49.205Z,93.18
2019-05-20T08:16:19.735Z,93.95
2019-05-20T08:18:50.264Z,93.15
2019-05-20T08:21:20.860Z,93.60
2019-05-20T08:23:51.470Z,94.96
2019-05-20T08:26:22.132Z,96.91
2019-05-20T08:28:55.795Z,99.39
2019-05-20T08:31:32.264Z,99.28
2019-05-20T08:34:08.145Z,97.42
2019-05-20T08:36:38.571Z,96.90
2019-05-20T08:39:14.853Z,96.54
2019-05-20T08:41:48.148Z,95.91
2019-05-20T08:44:24.212Z,97.78
2019-05-20T08:46:57.450Z,97.09
2019-05-20T08:49:30.866Z,100.00
2019-05-20T08:52:01.571Z,98.61
2019-05-20T08:54:32.081Z,98.02
2019-05-20T08:57:05.035Z,98.46
2019-05-20T09:02:41.312Z,98.44
2019-05-20T09:05:11.898Z,99.70
2019-05-20T09:07:42.370Z,98.60
2019-05-20T09:10:18.042Z,98.83
2019-05-20T09:12:49.747Z,99.25
2019-05-20T09:15:20.531Z,98.10
2019-05-20T09:17:50.793Z,99.50
2019-05-20T09:20:21.620Z,98.49
2019-05-20T09:22:52.163Z,99.77
2019-05-20T09:25:32.057Z,99.17
2019-05-20T09:28:03.213Z,99.49
2019-05-20T09:30:33.844Z,97.83
2019-05-20T09:33:04.717Z,98.08
2019-05-20T09:35:35.105Z,99.27
2019-05-20T09:38:17.686Z,98.48
2019-05-20T09:40:44.088Z,98.97
2019-05-20T09:43:14.780Z,100.00
2019-05-20T09:45:45.203Z,100.00
2019-05-20T09:48:15.862Z,100.00
2019-05-20T09:50:46.175Z,100.00
2019-05-20T09:53:18.972Z,100.00
2019-05-20T09:55:49.355Z,100.00
2019-05-20T09:58:19.830Z,100.00
2019-05-20T10:00:50.322Z,100.00
2019-05-20T10:03:20.726Z,99.48
2019-05-20T10:05:51.156Z,98.71
2019-05-20T10:08:37.469Z,100.00
2019-05-20T10:10:59.549Z,100.00
2019-05-20T10:13:29.246Z,99.75
2019-05-20T10:15:59.685Z,100.00
2019-05-20T10:18:37.310Z,100.00
2019-05-20T10:21:05.551Z,100.00
2019-05-20T10:23:35.988Z,100.00
2019-05-20T10:26:09.506Z,98.48
2019-05-20T10:28:42.090Z,96.26
2019-05-20T10:31:11.933Z,96.03
2019-05-20T10:33:42.451Z,96.63
2019-05-20T10:36:12.805Z,96.69
2019-05-20T10:38:57.599Z,97.20
2019-05-20T10:41:18.213Z,97.12
2019-05-20T10:43:48.680Z,98.39
2019-05-20T10:46:21.947Z,97.13
2019-05-20T10:48:52.226Z,96.82
2019-05-20T10:51:25.820Z,96.30
2019-05-20T10:53:56.291Z,96.03
2019-05-20T10:56:26.693Z,96.51
2019-05-20T10:58:59.826Z,98.33
2019-05-20T11:02:43.806Z,98.76
2019-05-20T11:05:15.504Z,95.89
2019-05-20T11:07:49.376Z,97.63
2019-05-20T11:10:20.389Z,98.18
2019-05-20T11:12:50.830Z,98.71
2019-05-20T11:15:21.773Z,97.69
2019-05-20T11:17:52.109Z,95.96
2019-05-20T11:20:22.625Z,93.70
2019-05-20T11:23:01.163Z,94.30
2019-05-20T11:25:31.252Z,94.38
2019-05-20T11:28:03.895Z,94.91
2019-05-20T11:30:34.459Z,95.42
2019-05-20T11:33:04.990Z,95.39
2019-05-20T11:35:35.549Z,97.18
2019-05-20T11:38:08.236Z,96.03
2019-05-20T11:40:38.540Z,95.94
2019-05-20T11:43:08.903Z,97.17
2019-05-20T11:45:39.396Z,96.91
2019-05-20T11:48:09.907Z,97.67
2019-05-20T11:50:40.549Z,97.55
2019-05-20T11:53:11.279Z,98.76
2019-05-20T11:55:41.795Z,97.18
2019-05-20T11:58:16.227Z,96.83
2019-05-20T12:00:44.427Z,97.75
2019-05-20T12:03:14.922Z,97.90
2019-05-20T12:05:45.582Z,98.69
2019-05-20T12:08:17.598Z,98.23
2019-05-20T12:10:47.963Z,97.89
2019-05-20T12:13:23.790Z,97.58
2019-05-20T12:15:54.099Z,98.06
2019-05-20T12:18:24.965Z,99.02
2019-05-20T12:20:55.359Z,97.12
2019-05-20T12:23:25.920Z,97.79
2019-05-20T12:25:56.313Z,98.96
2019-05-20T12:28:27.761Z,96.52
2019-05-20T12:30:58.125Z,97.80
2019-05-20T12:33:28.653Z,96.83
2019-05-20T12:35:59.017Z,97.90
2019-05-20T12:38:29.380Z,97.60
2019-05-20T12:40:59.752Z,98.19
2019-05-20T12:43:33.431Z,99.68
2019-05-20T12:46:06.679Z,99.74
2019-05-20T12:48:44.534Z,100.00
2019-05-20T12:51:15.194Z,100.00
2019-05-20T12:53:45.706Z,100.00
2019-05-20T12:56:19.383Z,100.00
2019-05-20T12:58:48.605Z,99.81
2019-05-20T13:02:43.484Z,100.00
2019-05-20T13:05:14.155Z,100.00
2019-05-20T13:07:45.399Z,100.00
2019-05-20T13:10:29.654Z,99.61
2019-05-20T13:12:57.142Z,100.00
2019-05-20T13:15:27.863Z,98.93
2019-05-20T13:17:58.153Z,98.46
2019-05-20T13:20:28.735Z,98.07
2019-05-20T13:23:04.552Z,97.60
2019-05-20T13:25:37.605Z,96.77
2019-05-20T13:28:08.016Z,97.32
2019-05-20T13:30:38.636Z,98.25
2019-05-20T13:33:09.107Z,97.44
2019-05-20T13:35:39.729Z,99.45
2019-05-20T13:38:10.383Z,100.00
2019-05-20T13:40:46.503Z,100.00
2019-05-20T13:43:12.890Z,100.00
2019-05-20T13:45:43.273Z,100.00
2019-05-20T13:48:13.650Z,100.00
2019-05-20T13:50:44.176Z,100.00
2019-05-20T13:53:14.607Z,100.00
2019-05-20T13:55:47.751Z,100.00
2019-05-20T13:58:18.094Z,99.75
2019-05-20T14:00:48.532Z,97.78
2019-05-20T14:03:19.085Z,96.28
2019-05-20T14:05:49.483Z,97.82
2019-05-20T14:08:19.811Z,94.94
2019-05-20T14:11:03.639Z,95.14
2019-05-20T14:13:22.171Z,97.88
2019-05-20T14:15:53.704Z,96.59
2019-05-20T14:18:24.256Z,98.30
2019-05-20T14:21:01.143Z,96.46
2019-05-20T14:23:34.565Z,97.47
2019-05-20T14:26:08.424Z,98.07
2019-05-20T14:28:41.804Z,98.10
2019-05-20T14:31:14.083Z,98.41
2019-05-20T14:33:44.381Z,99.19
2019-05-20T14:36:37.767Z,99.04
2019-05-20T14:38:47.066Z,96.69
2019-05-20T14:41:21.436Z,97.94
2019-05-20T14:43:49.528Z,97.41
2019-05-20T14:46:19.883Z,98.42
2019-05-20T14:48:50.227Z,98.30
2019-05-20T14:51:20.718Z,98.22
2019-05-20T14:53:51.247Z,98.30
2019-05-20T14:56:22.251Z,97.90
2019-05-20T14:58:55.224Z,96.93
2019-05-20T15:02:52.402Z,96.91
2019-05-20T15:05:23.253Z,97.88
2019-05-20T15:07:53.621Z,97.93
2019-05-20T15:10:24.222Z,99.69
2019-05-20T15:12:54.736Z,99.23
2019-05-20T15:15:28.258Z,99.83
2019-05-20T15:18:07.505Z,99.38
2019-05-20T15:20:42.729Z,99.22
2019-05-20T15:23:13.009Z,100.00
2019-05-20T15:25:43.472Z,99.25
2019-05-20T15:28:13.882Z,99.88
2019-05-20T15:30:44.703Z,100.00
2019-05-20T15:33:15.209Z,99.88
2019-05-20T15:35:46.043Z,100.00
2019-05-20T15:38:16.494Z,100.00
2019-05-20T15:40:52.906Z,100.00
2019-05-20T15:43:23.598Z,100.00
2019-05-20T15:45:54.137Z,100.00
2019-05-20T15:48:24.811Z,100.00
2019-05-20T15:50:55.318Z,100.00
2019-05-20T15:53:25.756Z,100.00
2019-05-20T15:55:56.395Z,100.00
2019-05-20T15:58:26.856Z,100.00
2019-05-20T16:00:57.676Z,100.00
2019-05-20T16:03:28.223Z,100.00
2019-05-20T16:05:59.984Z,100.00
2019-05-20T16:08:31.076Z,100.00
2019-05-20T16:11:01.929Z,100.00
2019-05-20T16:13:35.922Z,100.00
2019-05-20T16:16:06.387Z,100.00
2019-05-20T16:18:40.509Z,100.00
2019-05-20T16:21:11.442Z,100.00
2019-05-20T16:23:42.101Z,100.00
2019-05-20T16:26:13.004Z,100.00
2019-05-20T16:28:44.149Z,100.00
2019-05-20T16:31:15.102Z,100.00
2019-05-20T16:33:48.124Z,100.00
2019-05-20T16:36:19.369Z,100.00
2019-05-20T16:38:50.279Z,100.00
2019-05-20T16:41:20.801Z,100.00
2019-05-20T16:43:51.204Z,100.00
2019-05-20T16:46:21.574Z,100.00
2019-05-20T16:48:51.991Z,100.00
2019-05-20T16:51:22.690Z,100.00
2019-05-20T16:53:53.551Z,100.00
2019-05-20T16:56:26.667Z,100.00
2019-05-20T16:58:56.954Z,100.00
2019-05-20T17:02:42.664Z,100.00
2019-05-20T17:05:13.043Z,100.00
2019-05-20T17:07:43.389Z,100.00
2019-05-20T17:10:14.041Z,100.00
2019-05-20T17:12:46.863Z,100.00
2019-05-20T17:15:17.530Z,100.00
2019-05-20T17:17:47.921Z,100.00
2019-05-20T17:20:18.335Z,100.00
2019-05-20T17:22:48.665Z,100.00
2019-05-20T17:25:22.160Z,100.00
2019-05-20T17:27:52.390Z,100.00
2019-05-20T17:30:22.989Z,100.00
2019-05-20T17:32:56.552Z,100.00
2019-05-20T17:35:27.045Z,100.00
2019-05-20T17:38:00.385Z,100.00
2019-05-20T17:40:30.757Z,100.00
2019-05-20T17:43:01.425Z,100.00
2019-05-20T17:45:31.955Z,100.00
2019-05-20T17:48:08.234Z,100.00
2019-05-20T17:50:38.690Z,100.00
2019-05-20T17:53:12.345Z,100.00
2019-05-20T17:55:44.705Z,100.00
2019-05-20T17:58:15.015Z,100.00
2019-05-20T18:00:48.611Z,100.00
2019-05-20T18:03:19.115Z,100.00
2019-05-20T18:05:49.936Z,100.00
2019-05-20T18:08:30.943Z,100.00
2019-05-20T18:11:01.409Z,100.00
2019-05-20T18:13:31.940Z,100.00
2019-05-20T18:16:05.174Z,100.00
2019-05-20T18:18:35.463Z,100.00
2019-05-20T18:21:05.947Z,100.00
2019-05-20T18:23:39.473Z,100.00
2019-05-20T18:26:09.729Z,100.00
2019-05-20T18:28:40.500Z,100.00
2019-05-20T18:31:12.251Z,100.00
2019-05-20T18:33:48.098Z,100.00
2019-05-20T18:36:18.741Z,100.00
2019-05-20T18:38:49.952Z,100.00
2019-05-20T18:41:20.858Z,100.00
2019-05-20T18:43:51.247Z,100.00
2019-05-20T18:46:21.692Z,100.00
2019-05-20T18:48:52.065Z,100.00
2019-05-20T18:51:22.512Z,100.00
2019-05-20T18:53:52.974Z,100.00
2019-05-20T18:56:23.444Z,100.00
2019-05-20T18:58:53.803Z,100.00
2019-05-20T19:02:42.381Z,100.00
2019-05-20T19:05:13.012Z,100.00
2019-05-20T19:07:43.480Z,100.00
2019-05-20T19:10:14.175Z,100.00
2019-05-20T19:12:44.601Z,100.00
2019-05-20T19:15:16.048Z,100.00
2019-05-20T19:17:46.450Z,100.00
2019-05-20T19:20:16.907Z,100.00
2019-05-20T19:22:47.467Z,100.00
2019-05-20T19:25:18.016Z,100.00
2019-05-20T19:27:48.414Z,100.00
2019-05-20T19:30:18.883Z,100.00
2019-05-20T19:32:53.085Z,100.00
2019-05-20T19:35:23.668Z,100.00
2019-05-20T19:37:54.215Z,100.00
2019-05-20T19:40:24.908Z,100.00
2019-05-20T19:42:55.261Z,100.00
2019-05-20T19:45:25.708Z,100.00
2019-05-20T19:47:56.114Z,100.00
2019-05-20T19:50:26.555Z,100.00
2019-05-20T19:52:56.909Z,100.00
2019-05-20T19:55:27.460Z,100.00
2019-05-20T19:57:57.698Z,100.00
2019-05-20T20:00:28.290Z,100.00
2019-05-20T20:02:58.751Z,100.00
2019-05-20T20:05:31.022Z,100.00
2019-05-20T20:08:02.153Z,100.00
2019-05-20T20:10:34.381Z,100.00
2019-05-20T20:13:04.921Z,100.00
2019-05-20T20:15:38.251Z,100.00
2019-05-20T20:18:08.684Z,100.00
2019-05-20T20:20:39.143Z,100.00
2019-05-20T20:23:12.101Z,100.00
2019-05-20T20:25:42.460Z,100.00
2019-05-20T20:28:12.853Z,100.00
2019-05-20T20:30:43.416Z,100.00
2019-05-20T20:33:14.240Z,100.00
2019-05-20T20:35:44.588Z,100.00
2019-05-20T20:38:17.845Z,100.00
2019-05-20T20:40:50.943Z,100.00
2019-05-20T20:43:23.487Z,100.00
2019-05-20T20:45:56.607Z,100.00
2019-05-20T20:48:29.041Z,100.00
2019-05-20T20:50:59.535Z,100.00
2019-05-20T20:53:29.950Z,100.00
2019-05-20T20:56:00.361Z,100.00
2019-05-20T20:58:30.745Z,100.00
2019-05-20T21:02:52.979Z,100.00
2019-05-20T21:05:15.307Z,100.00
2019-05-20T21:07:51.658Z,100.00
2019-05-20T21:10:29.614Z,100.00
2019-05-20T21:12:59.978Z,100.00
2019-05-20T21:15:30.398Z,100.00
2019-05-20T21:18:00.658Z,100.00
2019-05-20T21:20:31.110Z,100.00
2019-05-20T21:23:01.451Z,100.00
2019-05-20T21:25:31.671Z,100.00
2019-05-20T21:28:02.048Z,100.00
2019-05-20T21:30:32.427Z,100.00
2019-05-20T21:33:09.451Z,100.00
2019-05-20T21:35:34.938Z,100.00
2019-05-20T21:38:08.035Z,100.00
2019-05-20T21:40:38.366Z,100.00
2019-05-20T21:43:08.864Z,100.00
2019-05-20T21:45:39.276Z,100.00
2019-05-20T21:48:09.848Z,100.00
2019-05-20T21:50:40.170Z,100.00
2019-05-20T21:53:13.641Z,100.00
2019-05-20T21:55:43.953Z,100.00
2019-05-20T21:58:14.535Z,100.00
2019-05-20T22:00:49.345Z,100.00
2019-05-20T22:03:24.727Z,100.00
2019-05-20T22:05:52.294Z,100.00
2019-05-20T22:08:22.666Z,100.00
2019-05-20T22:10:58.970Z,100.00
2019-05-20T22:13:38.172Z,100.00
2019-05-20T22:16:08.526Z,100.00
2019-05-20T22:18:38.906Z,100.00
2019-05-20T22:21:10.831Z,100.00
2019-05-20T22:23:55.378Z,100.00
2019-05-20T22:26:25.782Z,100.00
2019-05-20T22:28:56.026Z,100.00
2019-05-20T22:31:26.464Z,100.00
2019-05-20T22:33:59.480Z,100.00
2019-05-20T22:36:29.820Z,100.00
2019-05-20T22:39:00.184Z,100.00
2019-05-20T22:41:30.592Z,100.00
2019-05-20T22:44:00.987Z,100.00
2019-05-20T22:46:31.307Z,100.00
2019-05-20T22:49:01.503Z,100.00
2019-05-20T22:51:31.869Z,100.00
2019-05-20T22:54:02.362Z,100.00
2019-05-20T22:56:32.634Z,100.00
2019-05-20T22:59:03.103Z,100.00
2019-05-20T23:02:41.459Z,100.00
2019-05-20T23:05:15.135Z,100.00
2019-05-20T23:07:46.008Z,100.00
2019-05-20T23:10:16.939Z,100.00
2019-05-20T23:12:47.323Z,100.00
2019-05-20T23:15:17.632Z,100.00
2019-05-20T23:17:47.945Z,100.00
2019-05-20T23:20:18.564Z,100.00
2019-05-20T23:22:48.987Z,100.00
2019-05-20T23:25:19.379Z,100.00
2019-05-20T23:27:49.718Z,100.00
2019-05-20T23:30:20.106Z,100.00
2019-05-20T23:32:50.577Z,100.00
2019-05-20T23:35:20.985Z,100.00
2019-05-20T23:37:51.536Z,100.00
2019-05-20T23:40:22.170Z,100.00
2019-05-20T23:42:55.554Z,100.00
2019-05-20T23:45:25.950Z,100.00
2019-05-20T23:47:56.306Z,100.00
2019-05-20T23:50:26.628Z,100.00
2019-05-20T23:52:56.963Z,100.00
2019-05-20T23:55:27.290Z,100.00
2019-05-20T23:58:04.741Z,100.00
